sensor_id;sensor_type;location;lat;lon;timestamp;P1;durP1;ratioP1;P2;durP2;ratioP2
26824;SDS011;14402;48.178;11.566;2023-02-26T00:00:14;0.9;;;0.8;;
26824;SDS011;14402;48.178;11.566;2023-02-26T00:00:44;0.9;;;0.8;;
26824;SDS011;14402;48.178;11.566;2023-02-26T00:01:14;0.9;;;0.8;;
26824;SDS011;14402;48.178;11.566;2023-02-26T00:01:44;1.1;;;0.8;;
26824;SDS011;14402;48.178;11.566;2023-02-26T00:02:14;1.3;;;0.8;;
26824;SDS011;14402;48.178;11.566;2023-02-26T00:02:44;1.3;;;0.8;;
26824;SDS011;14402;48.178;11.566;2023-02-26T00:03:14;1.3;;;0.8;;
26824;SDS011;14402;48.178;11.566;2023-02-26T00:03:47;1.2;;;1.0;;
26824;SDS011;14402;48.178;11.566;2023-02-26T00:04:14;1.2;;;1.1;;
26824;SDS011;14402;48.178;11.566;2023-02-26T00:04:44;1.2;;;1.1;;
26824;SDS011;14402;48.178;11.566;2023-02-26T00:05:14;1.2;;;1.1;;
26824;SDS011;14402;48.178;11.566;2023-02-26T00:05:44;1.3;;;1.0;;
26824;SDS011;14402;48.178;11.566;2023-02-26T00:06:15;1.4;;;1.0;;
26824;SDS011;14402;48.178;11.566;2023-02-26T00:06:45;1.4;;;1.0;;
26824;SDS011;14402;48.178;11.566;2023-02-26T00:07:15;1.4;;;1.0;;
26824;SDS011;14402;48.178;11.566;2023-02-26T00:07:45;1.2;;;0.9;;
26824;SDS011;14402;48.178;11.566;2023-02-26T00:08:15;1.0;;;0.9;;
26824;SDS011;14402;48.178;11.566;2023-02-26T00:08:45;1.0;;;0.9;;
26824;SDS011;14402;48.178;11.566;2023-02-26T00:09:15;1.0;;;0.9;;
26824;SDS011;14402;48.178;11.566;2023-02-26T00:09:45;1.0;;;0.9;;
26824;SDS011;14402;48.178;11.566;2023-02-26T00:10:15;1.0;;;0.9;;
26824;SDS011;14402;48.178;11.566;2023-02-26T00:10:45;1.0;;;0.9;;
26824;SDS011;14402;48.178;11.566;2023-02-26T00:11:16;1.0;;;0.9;;
26824;SDS011;14402;48.178;11.566;2023-02-26T00:11:46;1.4;;;1.0;;
26824;SDS011;14402;48.178;11.566;2023-02-26T00:12:16;1.7;;;1.1;;
26824;SDS011;14402;48.178;11.566;2023-02-26T00:12:46;1.7;;;1.1;;
26824;SDS011;14402;48.178;11.566;2023-02-26T00:13:16;1.7;;;1.1;;
26824;SDS011;14402;48.178;11.566;2023-02-26T00:13:46;1.4;;;1.0;;
26824;SDS011;14402;48.178;11.566;2023-02-26T00:14:16;1.1;;;1.0;;
26824;SDS011;14402;48.178;11.566;2023-02-26T00:14:46;1.1;;;1.0;;
26824;SDS011;14402;48.178;11.566;2023-02-26T00:15:16;1.1;;;1.0;;
26824;SDS011;14402;48.178;11.566;2023-02-26T00:15:47;1.7;;;1.0;;
26824;SDS011;14402;48.178;11.566;2023-02-26T00:16:20;2.2;;;1.0;;
26824;SDS011;14402;48.178;11.566;2023-02-26T00:16:49;2.2;;;1.0;;
26824;SDS011;14402;48.178;11.566;2023-02-26T00:17:26;2.2;;;1.0;;
26824;SDS011;14402;48.178;11.566;2023-02-26T00:17:48;1.6;;;0.9;;
26824;SDS011;14402;48.178;11.566;2023-02-26T00:18:17;1.0;;;0.9;;
26824;SDS011;14402;48.178;11.566;2023-02-26T00:18:47;1.0;;;0.9;;
26824;SDS011;14402;48.178;11.566;2023-02-26T00:19:17;1.0;;;0.9;;
26824;SDS011;14402;48.178;11.566;2023-02-26T00:19:47;1.1;;;1.0;;
26824;SDS011;14402;48.178;11.566;2023-02-26T00:20:17;1.2;;;1.1;;
26824;SDS011;14402;48.178;11.566;2023-02-26T00:20:48;1.2;;;1.1;;
26824;SDS011;14402;48.178;11.566;2023-02-26T00:21:18;1.2;;;1.1;;
26824;SDS011;14402;48.178;11.566;2023-02-26T00:21:48;1.5;;;1.0;;
26824;SDS011;14402;48.178;11.566;2023-02-26T00:22:18;1.9;;;1.0;;
26824;SDS011;14402;48.178;11.566;2023-02-26T00:22:48;1.9;;;1.0;;
26824;SDS011;14402;48.178;11.566;2023-02-26T00:23:18;1.9;;;1.0;;
26824;SDS011;14402;48.178;11.566;2023-02-26T00:23:48;2.8;;;1.0;;
26824;SDS011;14402;48.178;11.566;2023-02-26T00:24:18;3.6;;;1.0;;
26824;SDS011;14402;48.178;11.566;2023-02-26T00:24:48;3.6;;;1.0;;
26824;SDS011;14402;48.178;11.566;2023-02-26T00:25:18;3.6;;;1.0;;
26824;SDS011;14402;48.178;11.566;2023-02-26T00:25:48;2.5;;;1.1;;
26824;SDS011;14402;48.178;11.566;2023-02-26T00:26:19;1.5;;;1.2;;
26824;SDS011;14402;48.178;11.566;2023-02-26T00:26:48;1.5;;;1.2;;
26824;SDS011;14402;48.178;11.566;2023-02-26T00:27:18;1.5;;;1.2;;
26824;SDS011;14402;48.178;11.566;2023-02-26T00:27:49;1.6;;;1.1;;
26824;SDS011;14402;48.178;11.566;2023-02-26T00:28:19;1.8;;;1.0;;
26824;SDS011;14402;48.178;11.566;2023-02-26T00:28:49;1.8;;;1.0;;
26824;SDS011;14402;48.178;11.566;2023-02-26T00:29:19;1.8;;;1.0;;
26824;SDS011;14402;48.178;11.566;2023-02-26T00:29:49;1.5;;;0.9;;
26824;SDS011;14402;48.178;11.566;2023-02-26T00:30:19;1.2;;;0.9;;
26824;SDS011;14402;48.178;11.566;2023-02-26T00:30:49;1.2;;;0.9;;
26824;SDS011;14402;48.178;11.566;2023-02-26T00:31:20;1.2;;;0.9;;
26824;SDS011;14402;48.178;11.566;2023-02-26T00:31:49;1.2;;;0.9;;
26824;SDS011;14402;48.178;11.566;2023-02-26T00:32:20;1.1;;;1.0;;
26824;SDS011;14402;48.178;11.566;2023-02-26T00:32:50;1.1;;;1.0;;
26824;SDS011;14402;48.178;11.566;2023-02-26T00:33:20;1.1;;;1.0;;
26824;SDS011;14402;48.178;11.566;2023-02-26T00:33:50;1.6;;;1.0;;
26824;SDS011;14402;48.178;11.566;2023-02-26T00:34:20;2.1;;;1.1;;
26824;SDS011;14402;48.178;11.566;2023-02-26T00:34:50;2.1;;;1.1;;
26824;SDS011;14402;48.178;11.566;2023-02-26T00:35:20;2.1;;;1.1;;
26824;SDS011;14402;48.178;11.566;2023-02-26T00:35:50;1.9;;;1.0;;
26824;SDS011;14402;48.178;11.566;2023-02-26T00:36:21;1.8;;;1.0;;
26824;SDS011;14402;48.178;11.566;2023-02-26T00:36:51;1.8;;;1.0;;
26824;SDS011;14402;48.178;11.566;2023-02-26T00:37:25;1.8;;;1.0;;
26824;SDS011;14402;48.178;11.566;2023-02-26T00:37:54;1.6;;;1.0;;
26824;SDS011;14402;48.178;11.566;2023-02-26T00:38:20;1.5;;;1.1;;
26824;SDS011;14402;48.178;11.566;2023-02-26T00:38:55;1.5;;;1.1;;
26824;SDS011;14402;48.178;11.566;2023-02-26T00:39:26;1.5;;;1.1;;
26824;SDS011;14402;48.178;11.566;2023-02-26T00:39:55;1.4;;;1.0;;
26824;SDS011;14402;48.178;11.566;2023-02-26T00:40:22;1.2;;;1.0;;
26824;SDS011;14402;48.178;11.566;2023-02-26T00:40:51;1.2;;;1.0;;
26824;SDS011;14402;48.178;11.566;2023-02-26T00:41:21;1.2;;;1.0;;
26824;SDS011;14402;48.178;11.566;2023-02-26T00:41:51;1.2;;;1.0;;
26824;SDS011;14402;48.178;11.566;2023-02-26T00:42:21;1.3;;;1.1;;
26824;SDS011;14402;48.178;11.566;2023-02-26T00:42:51;1.3;;;1.1;;
26824;SDS011;14402;48.178;11.566;2023-02-26T00:43:22;1.3;;;1.1;;
26824;SDS011;14402;48.178;11.566;2023-02-26T00:43:51;1.2;;;1.0;;
26824;SDS011;14402;48.178;11.566;2023-02-26T00:44:22;1.1;;;1.0;;
26824;SDS011;14402;48.178;11.566;2023-02-26T00:44:52;1.1;;;1.0;;
26824;SDS011;14402;48.178;11.566;2023-02-26T00:45:22;1.1;;;1.0;;
26824;SDS011;14402;48.178;11.566;2023-02-26T00:45:54;1.1;;;1.0;;
26824;SDS011;14402;48.178;11.566;2023-02-26T00:46:24;1.1;;;1.0;;
26824;SDS011;14402;48.178;11.566;2023-02-26T00:46:53;1.1;;;1.0;;
26824;SDS011;14402;48.178;11.566;2023-02-26T00:47:24;1.1;;;1.0;;
26824;SDS011;14402;48.178;11.566;2023-02-26T00:47:54;1.3;;;1.0;;
26824;SDS011;14402;48.178;11.566;2023-02-26T00:48:29;1.5;;;1.0;;
26824;SDS011;14402;48.178;11.566;2023-02-26T00:48:54;1.5;;;1.0;;
26824;SDS011;14402;48.178;11.566;2023-02-26T00:49:25;1.5;;;1.0;;
26824;SDS011;14402;48.178;11.566;2023-02-26T00:49:55;1.2;;;0.9;;
26824;SDS011;14402;48.178;11.566;2023-02-26T00:50:23;1.0;;;0.9;;
26824;SDS011;14402;48.178;11.566;2023-02-26T00:50:55;1.0;;;0.9;;
26824;SDS011;14402;48.178;11.566;2023-02-26T00:51:26;1.0;;;0.9;;
26824;SDS011;14402;48.178;11.566;2023-02-26T00:51:54;1.1;;;0.9;;
26824;SDS011;14402;48.178;11.566;2023-02-26T00:52:26;1.3;;;0.8;;
26824;SDS011;14402;48.178;11.566;2023-02-26T00:52:57;1.3;;;0.8;;
26824;SDS011;14402;48.178;11.566;2023-02-26T00:53:24;1.3;;;0.8;;
26824;SDS011;14402;48.178;11.566;2023-02-26T00:53:55;1.5;;;0.9;;
26824;SDS011;14402;48.178;11.566;2023-02-26T00:54:24;1.7;;;0.9;;
26824;SDS011;14402;48.178;11.566;2023-02-26T00:54:54;1.7;;;0.9;;
26824;SDS011;14402;48.178;11.566;2023-02-26T00:55:24;1.7;;;0.9;;
26824;SDS011;14402;48.178;11.566;2023-02-26T00:55:54;1.5;;;0.8;;
26824;SDS011;14402;48.178;11.566;2023-02-26T00:56:24;1.4;;;0.7;;
26824;SDS011;14402;48.178;11.566;2023-02-26T00:56:54;1.4;;;0.7;;
26824;SDS011;14402;48.178;11.566;2023-02-26T00:57:24;1.4;;;0.7;;
26824;SDS011;14402;48.178;11.566;2023-02-26T00:57:54;1.8;;;0.8;;
26824;SDS011;14402;48.178;11.566;2023-02-26T00:58:24;2.2;;;0.8;;
26824;SDS011;14402;48.178;11.566;2023-02-26T00:58:54;2.2;;;0.8;;
26824;SDS011;14402;48.178;11.566;2023-02-26T00:59:25;2.2;;;0.8;;
26824;SDS011;14402;48.178;11.566;2023-02-26T00:59:54;1.5;;;0.8;;
26824;SDS011;14402;48.178;11.566;2023-02-26T01:00:25;0.8;;;0.7;;
26824;SDS011;14402;48.178;11.566;2023-02-26T01:00:55;0.8;;;0.7;;
26824;SDS011;14402;48.178;11.566;2023-02-26T01:01:25;0.8;;;0.7;;
26824;SDS011;14402;48.178;11.566;2023-02-26T01:01:55;0.7;;;0.6;;
26824;SDS011;14402;48.178;11.566;2023-02-26T01:02:25;0.6;;;0.6;;
26824;SDS011;14402;48.178;11.566;2023-02-26T01:02:56;0.6;;;0.6;;
26824;SDS011;14402;48.178;11.566;2023-02-26T01:03:25;0.6;;;0.6;;
26824;SDS011;14402;48.178;11.566;2023-02-26T01:03:55;0.9;;;0.6;;
26824;SDS011;14402;48.178;11.566;2023-02-26T01:04:25;1.2;;;0.6;;
26824;SDS011;14402;48.178;11.566;2023-02-26T01:04:56;1.2;;;0.6;;
26824;SDS011;14402;48.178;11.566;2023-02-26T01:05:26;1.2;;;0.6;;
26824;SDS011;14402;48.178;11.566;2023-02-26T01:05:56;1.2;;;0.6;;
26824;SDS011;14402;48.178;11.566;2023-02-26T01:06:27;1.1;;;0.7;;
26824;SDS011;14402;48.178;11.566;2023-02-26T01:06:56;1.1;;;0.7;;
26824;SDS011;14402;48.178;11.566;2023-02-26T01:07:26;1.1;;;0.7;;
26824;SDS011;14402;48.178;11.566;2023-02-26T01:07:59;1.0;;;0.7;;
26824;SDS011;14402;48.178;11.566;2023-02-26T01:08:27;0.8;;;0.7;;
26824;SDS011;14402;48.178;11.566;2023-02-26T01:08:58;0.8;;;0.7;;
26824;SDS011;14402;48.178;11.566;2023-02-26T01:09:27;0.8;;;0.7;;
26824;SDS011;14402;48.178;11.566;2023-02-26T01:09:57;1.0;;;0.8;;
26824;SDS011;14402;48.178;11.566;2023-02-26T01:10:27;1.2;;;0.8;;
26824;SDS011;14402;48.178;11.566;2023-02-26T01:10:57;1.2;;;0.8;;
26824;SDS011;14402;48.178;11.566;2023-02-26T01:11:27;1.2;;;0.8;;
26824;SDS011;14402;48.178;11.566;2023-02-26T01:11:58;1.0;;;0.7;;
26824;SDS011;14402;48.178;11.566;2023-02-26T01:12:27;0.8;;;0.6;;
26824;SDS011;14402;48.178;11.566;2023-02-26T01:12:57;0.8;;;0.6;;
26824;SDS011;14402;48.178;11.566;2023-02-26T01:13:27;0.8;;;0.6;;
26824;SDS011;14402;48.178;11.566;2023-02-26T01:13:57;0.8;;;0.6;;
26824;SDS011;14402;48.178;11.566;2023-02-26T01:14:28;0.7;;;0.6;;
26824;SDS011;14402;48.178;11.566;2023-02-26T01:14:58;0.7;;;0.6;;
26824;SDS011;14402;48.178;11.566;2023-02-26T01:15:28;0.7;;;0.6;;
26824;SDS011;14402;48.178;11.566;2023-02-26T01:16:00;1.0;;;0.6;;
26824;SDS011;14402;48.178;11.566;2023-02-26T01:16:29;1.2;;;0.6;;
26824;SDS011;14402;48.178;11.566;2023-02-26T01:17:01;1.2;;;0.6;;
26824;SDS011;14402;48.178;11.566;2023-02-26T01:17:30;1.2;;;0.6;;
26824;SDS011;14402;48.178;11.566;2023-02-26T01:17:59;1.0;;;0.6;;
26824;SDS011;14402;48.178;11.566;2023-02-26T01:18:30;0.7;;;0.6;;
26824;SDS011;14402;48.178;11.566;2023-02-26T01:19:00;0.7;;;0.6;;
26824;SDS011;14402;48.178;11.566;2023-02-26T01:19:30;0.7;;;0.6;;
26824;SDS011;14402;48.178;11.566;2023-02-26T01:19:59;0.8;;;0.6;;
26824;SDS011;14402;48.178;11.566;2023-02-26T01:20:30;0.8;;;0.6;;
26824;SDS011;14402;48.178;11.566;2023-02-26T01:20:59;0.8;;;0.6;;
26824;SDS011;14402;48.178;11.566;2023-02-26T01:21:30;0.8;;;0.6;;
26824;SDS011;14402;48.178;11.566;2023-02-26T01:22:01;0.9;;;0.6;;
26824;SDS011;14402;48.178;11.566;2023-02-26T01:22:30;0.9;;;0.6;;
26824;SDS011;14402;48.178;11.566;2023-02-26T01:23:00;0.9;;;0.6;;
26824;SDS011;14402;48.178;11.566;2023-02-26T01:23:30;0.9;;;0.6;;
26824;SDS011;14402;48.178;11.566;2023-02-26T01:23:59;0.8;;;0.6;;
26824;SDS011;14402;48.178;11.566;2023-02-26T01:24:29;0.7;;;0.6;;
26824;SDS011;14402;48.178;11.566;2023-02-26T01:25:00;0.7;;;0.6;;
26824;SDS011;14402;48.178;11.566;2023-02-26T01:25:33;0.7;;;0.6;;
26824;SDS011;14402;48.178;11.566;2023-02-26T01:26:01;1.0;;;0.6;;
26824;SDS011;14402;48.178;11.566;2023-02-26T01:26:30;1.2;;;0.7;;
26824;SDS011;14402;48.178;11.566;2023-02-26T01:27:00;1.2;;;0.7;;
26824;SDS011;14402;48.178;11.566;2023-02-26T01:27:30;1.2;;;0.7;;
26824;SDS011;14402;48.178;11.566;2023-02-26T01:28:00;1.1;;;0.7;;
26824;SDS011;14402;48.178;11.566;2023-02-26T01:28:30;1.0;;;0.7;;
26824;SDS011;14402;48.178;11.566;2023-02-26T01:29:00;1.0;;;0.7;;
26824;SDS011;14402;48.178;11.566;2023-02-26T01:29:30;1.0;;;0.7;;
26824;SDS011;14402;48.178;11.566;2023-02-26T01:30:00;0.9;;;0.6;;
26824;SDS011;14402;48.178;11.566;2023-02-26T01:30:30;0.8;;;0.6;;
26824;SDS011;14402;48.178;11.566;2023-02-26T01:31:01;0.8;;;0.6;;
26824;SDS011;14402;48.178;11.566;2023-02-26T01:31:33;0.8;;;0.6;;
26824;SDS011;14402;48.178;11.566;2023-02-26T01:32:02;1.0;;;0.6;;
26824;SDS011;14402;48.178;11.566;2023-02-26T01:32:34;1.2;;;0.7;;
26824;SDS011;14402;48.178;11.566;2023-02-26T01:33:01;1.2;;;0.7;;
26824;SDS011;14402;48.178;11.566;2023-02-26T01:33:31;1.2;;;0.7;;
26824;SDS011;14402;48.178;11.566;2023-02-26T01:34:02;1.2;;;0.8;;
26824;SDS011;14402;48.178;11.566;2023-02-26T01:34:33;1.3;;;0.8;;
26824;SDS011;14402;48.178;11.566;2023-02-26T01:35:04;1.3;;;0.8;;
26824;SDS011;14402;48.178;11.566;2023-02-26T01:35:36;1.3;;;0.8;;
26824;SDS011;14402;48.178;11.566;2023-02-26T01:36:02;1.2;;;0.9;;
26824;SDS011;14402;48.178;11.566;2023-02-26T01:36:32;1.2;;;1.0;;
26824;SDS011;14402;48.178;11.566;2023-02-26T01:37:03;1.2;;;1.0;;
26824;SDS011;14402;48.178;11.566;2023-02-26T01:37:33;1.2;;;1.0;;
26824;SDS011;14402;48.178;11.566;2023-02-26T01:38:03;1.2;;;0.9;;
26824;SDS011;14402;48.178;11.566;2023-02-26T01:38:35;1.1;;;0.7;;
26824;SDS011;14402;48.178;11.566;2023-02-26T01:39:03;1.1;;;0.7;;
26824;SDS011;14402;48.178;11.566;2023-02-26T01:39:35;1.1;;;0.7;;
26824;SDS011;14402;48.178;11.566;2023-02-26T01:40:16;1.4;;;0.8;;
26824;SDS011;14402;48.178;11.566;2023-02-26T01:40:34;1.6;;;0.9;;
26824;SDS011;14402;48.178;11.566;2023-02-26T01:41:35;1.6;;;0.9;;
26824;SDS011;14402;48.178;11.566;2023-02-26T01:41:38;1.6;;;0.9;;
26824;SDS011;14402;48.178;11.566;2023-02-26T01:42:04;1.4;;;0.9;;
26824;SDS011;14402;48.178;11.566;2023-02-26T01:42:34;1.1;;;0.8;;
26824;SDS011;14402;48.178;11.566;2023-02-26T01:43:04;1.1;;;0.8;;
26824;SDS011;14402;48.178;11.566;2023-02-26T01:43:34;1.1;;;0.8;;
26824;SDS011;14402;48.178;11.566;2023-02-26T01:44:04;1.2;;;0.9;;
26824;SDS011;14402;48.178;11.566;2023-02-26T01:44:34;1.3;;;0.9;;
26824;SDS011;14402;48.178;11.566;2023-02-26T01:45:07;1.3;;;0.9;;
26824;SDS011;14402;48.178;11.566;2023-02-26T01:45:34;1.3;;;0.9;;
26824;SDS011;14402;48.178;11.566;2023-02-26T01:46:04;3.3;;;0.9;;
26824;SDS011;14402;48.178;11.566;2023-02-26T01:46:35;5.4;;;1.0;;
26824;SDS011;14402;48.178;11.566;2023-02-26T01:47:05;5.4;;;1.0;;
26824;SDS011;14402;48.178;11.566;2023-02-26T01:47:37;5.4;;;1.0;;
26824;SDS011;14402;48.178;11.566;2023-02-26T01:48:04;4.0;;;0.9;;
26824;SDS011;14402;48.178;11.566;2023-02-26T01:48:35;2.5;;;0.9;;
26824;SDS011;14402;48.178;11.566;2023-02-26T01:49:04;2.5;;;0.9;;
26824;SDS011;14402;48.178;11.566;2023-02-26T01:49:34;2.5;;;0.9;;
26824;SDS011;14402;48.178;11.566;2023-02-26T01:50:05;1.8;;;0.9;;
26824;SDS011;14402;48.178;11.566;2023-02-26T01:50:35;1.0;;;0.9;;
26824;SDS011;14402;48.178;11.566;2023-02-26T01:51:04;1.0;;;0.9;;
26824;SDS011;14402;48.178;11.566;2023-02-26T01:51:39;1.0;;;0.9;;
26824;SDS011;14402;48.178;11.566;2023-02-26T01:52:05;1.2;;;0.9;;
26824;SDS011;14402;48.178;11.566;2023-02-26T01:53:33;1.5;;;0.8;;
26824;SDS011;14402;48.178;11.566;2023-02-26T01:53:33;1.5;;;0.8;;
26824;SDS011;14402;48.178;11.566;2023-02-26T01:53:35;1.5;;;0.8;;
26824;SDS011;14402;48.178;11.566;2023-02-26T01:54:05;1.4;;;0.9;;
26824;SDS011;14402;48.178;11.566;2023-02-26T01:54:36;1.2;;;0.9;;
26824;SDS011;14402;48.178;11.566;2023-02-26T01:55:05;1.2;;;0.9;;
26824;SDS011;14402;48.178;11.566;2023-02-26T01:55:35;1.2;;;0.9;;
26824;SDS011;14402;48.178;11.566;2023-02-26T01:56:08;1.2;;;0.9;;
26824;SDS011;14402;48.178;11.566;2023-02-26T01:56:35;1.2;;;0.8;;
26824;SDS011;14402;48.178;11.566;2023-02-26T01:57:06;1.2;;;0.8;;
26824;SDS011;14402;48.178;11.566;2023-02-26T01:57:36;1.2;;;0.8;;
26824;SDS011;14402;48.178;11.566;2023-02-26T01:58:06;1.5;;;0.9;;
26824;SDS011;14402;48.178;11.566;2023-02-26T01:58:36;1.8;;;0.9;;
26824;SDS011;14402;48.178;11.566;2023-02-26T01:59:06;1.8;;;0.9;;
26824;SDS011;14402;48.178;11.566;2023-02-26T01:59:37;1.8;;;0.9;;
26824;SDS011;14402;48.178;11.566;2023-02-26T02:00:06;1.6;;;0.9;;
26824;SDS011;14402;48.178;11.566;2023-02-26T02:00:36;1.5;;;0.9;;
26824;SDS011;14402;48.178;11.566;2023-02-26T02:01:06;1.5;;;0.9;;
26824;SDS011;14402;48.178;11.566;2023-02-26T02:01:37;1.5;;;0.9;;
26824;SDS011;14402;48.178;11.566;2023-02-26T02:02:07;1.5;;;0.9;;
26824;SDS011;14402;48.178;11.566;2023-02-26T02:02:36;1.5;;;0.9;;
26824;SDS011;14402;48.178;11.566;2023-02-26T02:03:07;1.5;;;0.9;;
26824;SDS011;14402;48.178;11.566;2023-02-26T02:03:37;1.5;;;0.9;;
26824;SDS011;14402;48.178;11.566;2023-02-26T02:04:09;1.7;;;0.9;;
26824;SDS011;14402;48.178;11.566;2023-02-26T02:04:37;1.9;;;1.0;;
26824;SDS011;14402;48.178;11.566;2023-02-26T02:05:09;1.9;;;1.0;;
26824;SDS011;14402;48.178;11.566;2023-02-26T02:05:38;1.9;;;1.0;;
26824;SDS011;14402;48.178;11.566;2023-02-26T02:06:08;1.6;;;1.0;;
26824;SDS011;14402;48.178;11.566;2023-02-26T02:06:37;1.4;;;1.0;;
26824;SDS011;14402;48.178;11.566;2023-02-26T02:07:07;1.4;;;1.0;;
26824;SDS011;14402;48.178;11.566;2023-02-26T02:07:37;1.4;;;1.0;;
26824;SDS011;14402;48.178;11.566;2023-02-26T02:08:08;1.6;;;1.0;;
26824;SDS011;14402;48.178;11.566;2023-02-26T02:08:38;1.8;;;1.1;;
26824;SDS011;14402;48.178;11.566;2023-02-26T02:09:08;1.8;;;1.1;;
26824;SDS011;14402;48.178;11.566;2023-02-26T02:09:38;1.8;;;1.1;;
26824;SDS011;14402;48.178;11.566;2023-02-26T02:10:08;2.2;;;1.0;;
26824;SDS011;14402;48.178;11.566;2023-02-26T02:10:39;2.7;;;0.9;;
26824;SDS011;14402;48.178;11.566;2023-02-26T02:11:09;2.7;;;0.9;;
26824;SDS011;14402;48.178;11.566;2023-02-26T02:11:39;2.7;;;0.9;;
26824;SDS011;14402;48.178;11.566;2023-02-26T02:12:14;3.1;;;0.9;;
26824;SDS011;14402;48.178;11.566;2023-02-26T02:12:39;3.5;;;1.0;;
26824;SDS011;14402;48.178;11.566;2023-02-26T02:13:10;3.5;;;1.0;;
26824;SDS011;14402;48.178;11.566;2023-02-26T02:13:42;3.5;;;1.0;;
26824;SDS011;14402;48.178;11.566;2023-02-26T02:14:11;2.4;;;0.9;;
26824;SDS011;14402;48.178;11.566;2023-02-26T02:14:42;1.3;;;0.8;;
26824;SDS011;14402;48.178;11.566;2023-02-26T02:15:10;1.3;;;0.8;;
26824;SDS011;14402;48.178;11.566;2023-02-26T02:15:41;1.3;;;0.8;;
26824;SDS011;14402;48.178;11.566;2023-02-26T02:16:12;1.6;;;1.0;;
26824;SDS011;14402;48.178;11.566;2023-02-26T02:16:41;1.9;;;1.1;;
26824;SDS011;14402;48.178;11.566;2023-02-26T02:17:12;1.9;;;1.1;;
26824;SDS011;14402;48.178;11.566;2023-02-26T02:17:40;1.9;;;1.1;;
26824;SDS011;14402;48.178;11.566;2023-02-26T02:18:11;1.8;;;1.0;;
26824;SDS011;14402;48.178;11.566;2023-02-26T02:18:42;1.7;;;0.9;;
26824;SDS011;14402;48.178;11.566;2023-02-26T02:19:18;1.7;;;0.9;;
26824;SDS011;14402;48.178;11.566;2023-02-26T02:23:11;3.1;;;1.1;;
26824;SDS011;14402;48.178;11.566;2023-02-26T02:23:41;3.1;;;1.1;;
26824;SDS011;14402;48.178;11.566;2023-02-26T02:24:11;2.2;;;1.0;;
26824;SDS011;14402;48.178;11.566;2023-02-26T02:24:44;1.4;;;0.8;;
26824;SDS011;14402;48.178;11.566;2023-02-26T02:25:15;1.4;;;0.8;;
26824;SDS011;14402;48.178;11.566;2023-02-26T02:25:49;1.4;;;0.8;;
26824;SDS011;14402;48.178;11.566;2023-02-26T02:26:25;1.3;;;0.8;;
26824;SDS011;14402;48.178;11.566;2023-02-26T02:26:44;1.2;;;0.7;;
26824;SDS011;14402;48.178;11.566;2023-02-26T02:27:12;1.2;;;0.7;;
26824;SDS011;14402;48.178;11.566;2023-02-26T02:27:43;1.2;;;0.7;;
26824;SDS011;14402;48.178;11.566;2023-02-26T02:28:14;1.7;;;0.8;;
26824;SDS011;14402;48.178;11.566;2023-02-26T02:28:45;2.2;;;0.9;;
26824;SDS011;14402;48.178;11.566;2023-02-26T02:29:31;2.2;;;0.9;;
26824;SDS011;14402;48.178;11.566;2023-02-26T02:29:49;2.2;;;0.9;;
26824;SDS011;14402;48.178;11.566;2023-02-26T02:30:29;2.2;;;0.9;;
26824;SDS011;14402;48.178;11.566;2023-02-26T02:30:51;2.1;;;0.9;;
26824;SDS011;14402;48.178;11.566;2023-02-26T02:31:13;2.1;;;0.9;;
26824;SDS011;14402;48.178;11.566;2023-02-26T02:31:42;2.1;;;0.9;;
26824;SDS011;14402;48.178;11.566;2023-02-26T02:32:12;2.2;;;0.9;;
26824;SDS011;14402;48.178;11.566;2023-02-26T02:32:43;2.2;;;1.0;;
26824;SDS011;14402;48.178;11.566;2023-02-26T02:33:13;2.2;;;1.0;;
26824;SDS011;14402;48.178;11.566;2023-02-26T02:33:43;2.2;;;1.0;;
26824;SDS011;14402;48.178;11.566;2023-02-26T02:34:14;2.0;;;0.9;;
26824;SDS011;14402;48.178;11.566;2023-02-26T02:34:44;1.8;;;0.8;;
26824;SDS011;14402;48.178;11.566;2023-02-26T02:35:14;1.8;;;0.8;;
26824;SDS011;14402;48.178;11.566;2023-02-26T02:35:43;1.8;;;0.8;;
26824;SDS011;14402;48.178;11.566;2023-02-26T02:36:14;2.0;;;0.8;;
26824;SDS011;14402;48.178;11.566;2023-02-26T02:36:44;2.2;;;0.7;;
26824;SDS011;14402;48.178;11.566;2023-02-26T02:37:15;2.2;;;0.7;;
26824;SDS011;14402;48.178;11.566;2023-02-26T02:37:45;2.2;;;0.7;;
26824;SDS011;14402;48.178;11.566;2023-02-26T02:38:14;1.7;;;0.8;;
26824;SDS011;14402;48.178;11.566;2023-02-26T02:38:44;1.1;;;0.9;;
26824;SDS011;14402;48.178;11.566;2023-02-26T02:39:15;1.1;;;0.9;;
26824;SDS011;14402;48.178;11.566;2023-02-26T02:39:45;1.1;;;0.9;;
26824;SDS011;14402;48.178;11.566;2023-02-26T02:40:14;1.3;;;0.9;;
26824;SDS011;14402;48.178;11.566;2023-02-26T02:40:45;1.5;;;0.9;;
26824;SDS011;14402;48.178;11.566;2023-02-26T02:41:15;1.5;;;0.9;;
26824;SDS011;14402;48.178;11.566;2023-02-26T02:41:44;1.5;;;0.9;;
26824;SDS011;14402;48.178;11.566;2023-02-26T02:42:19;1.5;;;0.9;;
26824;SDS011;14402;48.178;11.566;2023-02-26T02:42:45;1.5;;;0.9;;
26824;SDS011;14402;48.178;11.566;2023-02-26T02:43:15;1.5;;;0.9;;
26824;SDS011;14402;48.178;11.566;2023-02-26T02:43:44;1.5;;;0.9;;
26824;SDS011;14402;48.178;11.566;2023-02-26T02:44:15;1.6;;;0.9;;
26824;SDS011;14402;48.178;11.566;2023-02-26T02:44:45;1.8;;;0.9;;
26824;SDS011;14402;48.178;11.566;2023-02-26T02:45:17;1.8;;;0.9;;
26824;SDS011;14402;48.178;11.566;2023-02-26T02:45:46;1.8;;;0.9;;
26824;SDS011;14402;48.178;11.566;2023-02-26T02:46:16;1.8;;;0.9;;
26824;SDS011;14402;48.178;11.566;2023-02-26T02:46:45;1.8;;;1.0;;
26824;SDS011;14402;48.178;11.566;2023-02-26T02:47:15;1.8;;;1.0;;
26824;SDS011;14402;48.178;11.566;2023-02-26T02:47:47;1.8;;;1.0;;
26824;SDS011;14402;48.178;11.566;2023-02-26T02:48:16;1.5;;;0.9;;
26824;SDS011;14402;48.178;11.566;2023-02-26T02:48:46;1.1;;;0.9;;
26824;SDS011;14402;48.178;11.566;2023-02-26T02:49:17;1.1;;;0.9;;
26824;SDS011;14402;48.178;11.566;2023-02-26T02:49:46;1.1;;;0.9;;
26824;SDS011;14402;48.178;11.566;2023-02-26T02:50:17;1.4;;;0.9;;
26824;SDS011;14402;48.178;11.566;2023-02-26T02:50:46;1.6;;;1.0;;
26824;SDS011;14402;48.178;11.566;2023-02-26T02:51:18;1.6;;;1.0;;
26824;SDS011;14402;48.178;11.566;2023-02-26T02:51:47;1.6;;;1.0;;
26824;SDS011;14402;48.178;11.566;2023-02-26T02:52:17;1.6;;;1.0;;
26824;SDS011;14402;48.178;11.566;2023-02-26T02:52:47;1.6;;;1.0;;
26824;SDS011;14402;48.178;11.566;2023-02-26T02:53:18;1.6;;;1.0;;
26824;SDS011;14402;48.178;11.566;2023-02-26T02:53:48;1.6;;;1.0;;
26824;SDS011;14402;48.178;11.566;2023-02-26T02:54:17;1.8;;;1.0;;
26824;SDS011;14402;48.178;11.566;2023-02-26T02:54:47;2.0;;;1.0;;
26824;SDS011;14402;48.178;11.566;2023-02-26T02:55:18;2.0;;;1.0;;
26824;SDS011;14402;48.178;11.566;2023-02-26T02:55:47;2.0;;;1.0;;
26824;SDS011;14402;48.178;11.566;2023-02-26T02:56:17;2.2;;;1.0;;
26824;SDS011;14402;48.178;11.566;2023-02-26T02:56:48;2.5;;;1.0;;
26824;SDS011;14402;48.178;11.566;2023-02-26T02:57:18;2.5;;;1.0;;
26824;SDS011;14402;48.178;11.566;2023-02-26T02:57:47;2.5;;;1.0;;
26824;SDS011;14402;48.178;11.566;2023-02-26T02:58:18;2.2;;;0.9;;
26824;SDS011;14402;48.178;11.566;2023-02-26T02:58:48;1.9;;;0.9;;
26824;SDS011;14402;48.178;11.566;2023-02-26T02:59:19;1.9;;;0.9;;
26824;SDS011;14402;48.178;11.566;2023-02-26T02:59:47;1.9;;;0.9;;
26824;SDS011;14402;48.178;11.566;2023-02-26T03:00:18;1.7;;;0.9;;
26824;SDS011;14402;48.178;11.566;2023-02-26T03:00:48;1.5;;;1.0;;
26824;SDS011;14402;48.178;11.566;2023-02-26T03:01:18;1.5;;;1.0;;
26824;SDS011;14402;48.178;11.566;2023-02-26T03:01:48;1.5;;;1.0;;
26824;SDS011;14402;48.178;11.566;2023-02-26T03:02:18;1.9;;;0.9;;
26824;SDS011;14402;48.178;11.566;2023-02-26T03:02:49;2.3;;;0.9;;
26824;SDS011;14402;48.178;11.566;2023-02-26T03:03:19;2.3;;;0.9;;
26824;SDS011;14402;48.178;11.566;2023-02-26T03:03:49;2.2;;;0.9;;
26824;SDS011;14402;48.178;11.566;2023-02-26T03:04:18;2.2;;;0.9;;
26824;SDS011;14402;48.178;11.566;2023-02-26T03:04:48;2.2;;;0.9;;
26824;SDS011;14402;48.178;11.566;2023-02-26T03:05:18;2.2;;;0.9;;
26824;SDS011;14402;48.178;11.566;2023-02-26T03:05:48;2.0;;;0.9;;
26824;SDS011;14402;48.178;11.566;2023-02-26T03:06:18;1.8;;;0.9;;
26824;SDS011;14402;48.178;11.566;2023-02-26T03:06:48;1.8;;;0.9;;
26824;SDS011;14402;48.178;11.566;2023-02-26T03:07:19;1.8;;;0.9;;